createdAt,value
2016-05-01T00:00:36.887Z,84.95
2016-05-01T00:01:36.890Z,85.04
2016-05-01T00:02:36.892Z,85.33
2016-05-01T00:03:36.895Z,85.24
2016-05-01T00:04:36.897Z,85.24
2016-05-01T00:05:37.308Z,85.57
2016-05-01T00:06:36.904Z,85.61
2016-05-01T00:07:36.733Z,85.9
2016-05-01T00:08:36.894Z,85.52
2016-05-01T00:09:36.896Z,85.71
2016-05-01T00:10:36.742Z,85.52
2016-05-01T00:11:36.902Z,85.52
2016-05-01T00:12:36.888Z,85.71
2016-05-01T00:13:36.907Z,85.28
2016-05-01T00:14:36.894Z,85.76
2016-05-01T00:15:36.896Z,85.76
2016-05-01T00:16:36.899Z,85.47
2016-05-01T00:17:36.746Z,85.47
2016-05-01T00:18:36.904Z,85.57
2016-05-01T00:19:36.907Z,85.66
2016-05-01T00:20:36.926Z,85.66
2016-05-01T00:21:36.756Z,86.05
2016-05-01T00:22:36.899Z,86.14
2016-05-01T00:23:36.901Z,86.14
2016-05-01T00:24:36.748Z,85.95
2016-05-01T00:25:36.907Z,86.05
2016-05-01T00:26:36.754Z,86.18
2016-05-01T00:27:36.897Z,85.86
2016-05-01T00:28:36.900Z,85.86
2016-05-01T00:29:36.903Z,85.95
2016-05-01T00:30:36.906Z,85.95
2016-05-01T00:31:36.909Z,85.86
2016-05-01T00:32:36.895Z,86.05
2016-05-01T00:33:36.758Z,85.95
2016-05-01T00:34:36.761Z,85.95
2016-05-01T00:35:37.169Z,86.05
2016-05-01T00:36:36.906Z,86.14
2016-05-01T00:37:36.908Z,85.95
2016-05-01T00:38:36.911Z,85.95
2016-05-01T00:39:36.914Z,85.86
2016-05-01T00:40:36.902Z,85.95
2016-05-01T00:41:36.919Z,85.86
2016-05-01T00:42:36.766Z,86.14
2016-05-01T00:43:36.910Z,85.86
2016-05-01T00:44:36.912Z,86.24
2016-05-01T00:45:36.915Z,86.05
2016-05-01T00:46:36.901Z,86.24
2016-05-01T00:47:36.905Z,86.05
2016-05-01T00:48:36.907Z,85.66
2016-05-01T00:49:36.909Z,86.14
2016-05-01T00:50:36.912Z,86.05
2016-05-01T00:51:36.759Z,86.14
2016-05-01T00:52:36.918Z,86.24
2016-05-01T00:53:36.921Z,85.95
2016-05-01T00:54:36.923Z,86.05
2016-05-01T00:55:36.926Z,86.05
2016-05-01T00:56:36.929Z,86.05
2016-05-01T00:57:36.760Z,85.76
2016-05-01T00:58:36.918Z,85.86
2016-05-01T00:59:36.921Z,85.76
2016-05-01T01:00:36.767Z,85.86
2016-05-01T01:01:36.926Z,85.95
2016-05-01T01:02:36.929Z,85.66
2016-05-01T01:03:36.916Z,85.76
2016-05-01T01:04:36.919Z,85.76
2016-05-01T01:05:36.936Z,85.47
2016-05-01T01:06:36.924Z,86.43
2016-05-01T01:07:36.927Z,85.76
2016-05-01T01:08:36.930Z,85.86
2016-05-01T01:09:36.916Z,85.76
2016-05-01T01:10:36.919Z,85.47
2016-05-01T01:11:36.922Z,85.57
2016-05-01T01:12:36.768Z,86.05
2016-05-01T01:13:36.928Z,86.14
2016-05-01T01:14:36.911Z,86.05
2016-05-01T01:15:36.929Z,86.14
2016-05-01T01:16:36.759Z,85.95
2016-05-01T01:17:36.934Z,86.14
2016-05-01T01:18:36.937Z,86.14
2016-05-01T01:19:36.925Z,86.33
2016-05-01T01:20:36.942Z,86.33
2016-05-01T01:21:36.930Z,86.05
2016-05-01T01:22:36.933Z,86.43
2016-05-01T01:23:36.778Z,86.14
2016-05-01T01:24:36.922Z,86.61
2016-05-01T01:25:36.783Z,86.71
2016-05-01T01:26:36.927Z,86.61
2016-05-01T01:27:36.930Z,86.61
2016-05-01T01:28:36.932Z,86.52
2016-05-01T01:29:36.936Z,86.61
2016-05-01T01:30:36.938Z,86.52
2016-05-01T01:31:36.924Z,86.43
2016-05-01T01:32:36.927Z,86.52
2016-05-01T01:33:36.930Z,86.43
2016-05-01T01:34:36.933Z,86.61
2016-05-01T01:35:36.936Z,86.43
2016-05-01T01:36:36.924Z,86.43
2016-05-01T01:37:36.925Z,86.43
2016-05-01T01:38:36.929Z,86.52
2016-05-01T01:39:36.931Z,86.52
2016-05-01T01:40:36.934Z,86.61
2016-05-01T01:41:36.937Z,86.43
2016-05-01T01:42:36.939Z,86.52
2016-05-01T01:43:36.926Z,86.43
2016-05-01T01:44:36.944Z,86.43
2016-05-01T01:45:36.947Z,86.43
2016-05-01T01:46:36.934Z,86.43
2016-05-01T01:47:36.937Z,86.24
2016-05-01T01:48:36.783Z,86.57
2016-05-01T01:49:36.942Z,86.43
2016-05-01T01:50:36.945Z,86.43
2016-05-01T01:51:36.947Z,86.52
2016-05-01T01:52:36.934Z,86.52
2016-05-01T01:53:36.936Z,86.47
2016-05-01T01:54:36.940Z,86.52
2016-05-01T01:55:36.943Z,86.38
2016-05-01T01:56:36.930Z,86.47
2016-05-01T01:57:36.947Z,86.38
2016-05-01T01:58:36.950Z,86.47
2016-05-01T01:59:36.782Z,86.47
2016-05-01T02:00:36.941Z,86.57
2016-05-01T02:01:36.943Z,86.47
2016-05-01T02:02:36.946Z,86.47
2016-05-01T02:03:36.949Z,86.38
2016-05-01T02:04:36.951Z,86.47
2016-05-01T02:05:38.016Z,86.57
2016-05-01T02:06:36.940Z,86.38
2016-05-01T02:07:36.943Z,86.29
2016-05-01T02:08:36.946Z,86.57
2016-05-01T02:09:36.949Z,86.1
2016-05-01T02:10:36.951Z,86.38
2016-05-01T02:11:36.940Z,86.47
2016-05-01T02:12:36.941Z,86.38
2016-05-01T02:13:36.959Z,86.57
2016-05-01T02:14:36.948Z,86.38
2016-05-01T02:15:36.793Z,86.29
2016-05-01T02:16:36.937Z,86.19
2016-05-01T02:17:36.940Z,86.38
2016-05-01T02:18:36.942Z,86.19
2016-05-01T02:19:36.789Z,86.47
2016-05-01T02:20:37.292Z,86.19
2016-05-01T02:21:36.950Z,86.57
2016-05-01T02:22:36.953Z,86.1
2016-05-01T02:23:36.956Z,86.95
2016-05-01T02:24:36.958Z,87.14
2016-05-01T02:25:36.945Z,86.86
2016-05-01T02:26:36.947Z,86.86
2016-05-01T02:27:36.950Z,86.95
2016-05-01T02:28:36.953Z,86.67
2016-05-01T02:29:36.955Z,86.76
2016-05-01T02:30:36.943Z,86.86
2016-05-01T02:31:36.946Z,86.76
2016-05-01T02:32:36.949Z,86.76
2016-05-01T02:33:36.951Z,86.67
2016-05-01T02:34:36.954Z,86.47
2016-05-01T02:35:36.957Z,86.38
2016-05-01T02:36:36.959Z,86.57
2016-05-01T02:37:36.946Z,86.95
2016-05-01T02:38:36.949Z,87.34
2016-05-01T02:39:36.952Z,87.34
2016-05-01T02:40:36.954Z,87.14
2016-05-01T02:41:36.957Z,87.24
2016-05-01T02:42:36.944Z,87.14
2016-05-01T02:43:36.806Z,87.14
2016-05-01T02:44:36.949Z,87.14
2016-05-01T02:45:36.951Z,87.24
2016-05-01T02:46:36.954Z,87.14
2016-05-01T02:47:36.957Z,87.24
2016-05-01T02:48:36.959Z,87.05
2016-05-01T02:49:36.947Z,87.24
2016-05-01T02:50:37.372Z,87.05
2016-05-01T02:51:36.812Z,87.05
2016-05-01T02:52:36.956Z,87.14
2016-05-01T02:53:36.958Z,87.14
2016-05-01T02:54:36.961Z,87.14
2016-05-01T02:55:36.963Z,87.24
2016-05-01T02:56:36.951Z,87.05
2016-05-01T02:57:36.953Z,87.14
2016-05-01T02:58:36.800Z,87.05
2016-05-01T02:59:36.958Z,86.86
2016-05-01T03:00:36.961Z,87.05
2016-05-01T03:01:36.964Z,86.86
2016-05-01T03:02:36.966Z,86.76
2016-05-01T03:03:36.969Z,87.34
2016-05-01T03:04:36.799Z,87.05
2016-05-01T03:05:37.209Z,87.34
2016-05-01T03:06:36.805Z,87.14
2016-05-01T03:07:36.964Z,87.14
2016-05-01T03:08:36.951Z,87.52
2016-05-01T03:09:36.954Z,87.24
2016-05-01T03:10:36.957Z,87.52
2016-05-01T03:11:36.976Z,87.71
2016-05-01T03:12:36.979Z,87.14
2016-05-01T03:13:36.964Z,87.81
2016-05-01T03:14:36.968Z,87.43
2016-05-01T03:15:36.954Z,87.24
2016-05-01T03:16:36.973Z,87.38
2016-05-01T03:17:36.960Z,87.43
2016-05-01T03:18:36.962Z,87.38
2016-05-01T03:19:36.965Z,87.38
2016-05-01T03:20:37.562Z,87.38
2016-05-01T03:21:36.955Z,87.57
2016-05-01T03:22:36.958Z,87.52
2016-05-01T03:23:36.961Z,87.48
2016-05-01T03:24:37.025Z,87.76
2016-05-01T03:25:36.966Z,87.48
2016-05-01T03:26:36.969Z,87.76
2016-05-01T03:27:36.972Z,87.38
2016-05-01T03:28:36.974Z,87.76
2016-05-01T03:29:36.977Z,87.38
2016-05-01T03:30:36.980Z,87.76
2016-05-01T03:31:36.826Z,87.48
2016-05-01T03:32:36.969Z,87.86
2016-05-01T03:33:36.816Z,87.86
2016-05-01T03:34:36.975Z,87.76
2016-05-01T03:35:36.977Z,87.86
2016-05-01T03:36:36.964Z,87.67
2016-05-01T03:37:36.967Z,88.15
2016-05-01T03:38:36.969Z,87.76
2016-05-01T03:39:36.972Z,87.95
2016-05-01T03:40:36.975Z,87.95
2016-05-01T03:41:36.977Z,87.67
2016-05-01T03:42:36.980Z,87.76
2016-05-01T03:43:36.968Z,87.67
2016-05-01T03:44:36.970Z,87.76
2016-05-01T03:45:36.973Z,88.34
2016-05-01T03:46:36.976Z,88.43
2016-05-01T03:47:36.978Z,88.34
2016-05-01T03:48:36.965Z,88.53
2016-05-01T03:49:36.967Z,88.53
2016-05-01T03:50:36.830Z,88.43
2016-05-01T03:51:36.973Z,88.43
2016-05-01T03:52:36.976Z,88.34
2016-05-01T03:53:36.979Z,88.53
2016-05-01T03:54:36.982Z,88.34
2016-05-01T03:55:36.969Z,88.34
2016-05-01T03:56:36.815Z,88.38
2016-05-01T03:57:36.975Z,88.34
2016-05-01T03:58:36.977Z,88.38
2016-05-01T03:59:36.980Z,88.15
2016-05-01T04:00:36.966Z,88.15
2016-05-01T04:01:36.969Z,88.15
2016-05-01T04:02:36.972Z,88.15
2016-05-01T04:03:36.818Z,88.38
2016-05-01T04:04:36.977Z,88.38
2016-05-01T04:05:36.963Z,88.38
2016-05-01T04:06:36.966Z,88.34
2016-05-01T04:07:36.969Z,88.38
2016-05-01T04:08:36.972Z,88.38
2016-05-01T04:09:36.974Z,88.38
2016-05-01T04:10:36.962Z,88.19
2016-05-01T04:11:36.824Z,88.38
2016-05-01T04:12:36.968Z,88.19
2016-05-01T04:13:36.971Z,88.38
2016-05-01T04:14:36.988Z,88.15
2016-05-01T04:15:36.976Z,88.05
2016-05-01T04:16:37.134Z,88.38
2016-05-01T04:17:36.981Z,88.05
2016-05-01T04:18:36.984Z,88.19
2016-05-01T04:19:36.970Z,88.19
2016-05-01T04:20:36.973Z,88.19
2016-05-01T04:21:36.976Z,88.19
2016-05-01T04:22:36.978Z,88.38
2016-05-01T04:23:36.981Z,88
2016-05-01T04:24:36.983Z,88.38
2016-05-01T04:25:36.986Z,88.38
2016-05-01T04:26:36.973Z,88.47
2016-05-01T04:27:36.820Z,88.47
2016-05-01T04:28:36.979Z,88.47
2016-05-01T04:29:36.982Z,88.38
2016-05-01T04:30:36.969Z,88.38
2016-05-01T04:31:36.972Z,88.38
2016-05-01T04:32:36.975Z,88.38
2016-05-01T04:33:36.977Z,88.47
2016-05-01T04:34:36.980Z,88.57
2016-05-01T04:35:36.842Z,88.47
2016-05-01T04:36:36.969Z,88.38
2016-05-01T04:37:36.988Z,88.57
2016-05-01T04:38:36.974Z,88.47
2016-05-01T04:39:36.993Z,88.47
2016-05-01T04:40:36.980Z,88.57
2016-05-01T04:41:36.982Z,88.67
2016-05-01T04:42:36.985Z,88.76
2016-05-01T04:43:36.988Z,88.95
2016-05-01T04:44:36.990Z,88.47
2016-05-01T04:45:36.978Z,88.85
2016-05-01T04:46:36.981Z,88.85
2016-05-01T04:47:36.984Z,88.95
2016-05-01T04:48:36.987Z,88.67
2016-05-01T04:49:36.990Z,88.47
2016-05-01T04:50:36.975Z,88.67
2016-05-01T04:51:36.979Z,88.85
2016-05-01T04:52:36.981Z,88.95
2016-05-01T04:53:36.984Z,88.76
2016-05-01T04:54:36.987Z,88.38
2016-05-01T04:55:36.989Z,88.47
2016-05-01T04:56:36.976Z,88.95
2016-05-01T04:57:36.978Z,88.67
2016-05-01T04:58:36.981Z,88.67
2016-05-01T04:59:36.828Z,88.76
2016-05-01T05:00:36.830Z,88.85
2016-05-01T05:01:36.989Z,88.95
2016-05-01T05:02:36.977Z,88.38
2016-05-01T05:03:36.995Z,88.85
2016-05-01T05:04:36.983Z,88.47
2016-05-01T05:05:37.141Z,88.76
2016-05-01T05:06:36.831Z,88.38
2016-05-01T05:07:36.991Z,88.57
2016-05-01T05:08:36.994Z,88.57
2016-05-01T05:09:36.996Z,88.38
2016-05-01T05:10:36.983Z,88.47
2016-05-01T05:11:37.001Z,88.85
2016-05-01T05:12:36.988Z,88.67
2016-05-01T05:13:36.975Z,88.67
2016-05-01T05:14:36.977Z,88.38
2016-05-01T05:15:36.980Z,88.47
2016-05-01T05:16:36.983Z,88.57
2016-05-01T05:17:36.829Z,88.76
2016-05-01T05:18:36.988Z,88.38
2016-05-01T05:19:36.990Z,88.47
2016-05-01T05:20:37.275Z,88.47
2016-05-01T05:21:36.981Z,88.95
2016-05-01T05:22:36.984Z,88.95
2016-05-01T05:23:36.987Z,88.67
2016-05-01T05:24:36.990Z,88.67
2016-05-01T05:25:36.991Z,88.67
2016-05-01T05:26:36.979Z,88.76
2016-05-01T05:27:36.982Z,88.38
2016-05-01T05:28:36.984Z,88.57
2016-05-01T05:29:36.987Z,88.85
2016-05-01T05:30:36.833Z,88.47
2016-05-01T05:31:36.992Z,88.38
2016-05-01T05:32:36.980Z,88.67
2016-05-01T05:33:36.982Z,88.95
2016-05-01T05:34:37.000Z,88.57
2016-05-01T05:35:36.988Z,88.76
2016-05-01T05:36:36.833Z,88.85
2016-05-01T05:37:36.994Z,88.67
2016-05-01T05:38:36.996Z,88.47
2016-05-01T05:39:36.982Z,88.67
2016-05-01T05:40:36.985Z,88.47
2016-05-01T05:41:36.988Z,88.67
2016-05-01T05:42:36.990Z,88.85
2016-05-01T05:43:36.994Z,89.04
2016-05-01T05:44:36.996Z,89.04
2016-05-01T05:45:36.999Z,89.14
2016-05-01T05:46:36.830Z,89.04
2016-05-01T05:47:36.832Z,89.04
2016-05-01T05:48:36.835Z,88.95
2016-05-01T05:49:36.994Z,89.04
2016-05-01T05:50:38.419Z,88.85
2016-05-01T05:51:36.999Z,89.42
2016-05-01T05:52:36.987Z,88.85
2016-05-01T05:53:36.989Z,88.85
2016-05-01T05:54:36.992Z,88.76
2016-05-01T05:55:36.995Z,88.67
2016-05-01T05:56:36.981Z,88.85
2016-05-01T05:57:36.984Z,88.57
2016-05-01T05:58:36.830Z,88.67
2016-05-01T05:59:36.833Z,88.57
2016-05-01T06:00:36.992Z,88.38
2016-05-01T06:01:36.978Z,88.57
2016-05-01T06:02:36.997Z,88.57
2016-05-01T06:03:36.984Z,88.47
2016-05-01T06:04:36.987Z,88.38
2016-05-01T06:05:36.834Z,88.76
2016-05-01T06:06:36.992Z,88.95
2016-05-01T06:07:36.994Z,88.95
2016-05-01T06:08:36.842Z,88.95
2016-05-01T06:09:36.986Z,88.38
2016-05-01T06:10:36.988Z,88.95
2016-05-01T06:11:36.990Z,88.67
2016-05-01T06:12:37.012Z,88.57
2016-05-01T06:13:36.981Z,88.47
2016-05-01T06:14:36.828Z,88.47
2016-05-01T06:15:36.986Z,88.85
2016-05-01T06:16:36.989Z,88.76
2016-05-01T06:17:36.991Z,88.57
2016-05-01T06:18:36.994Z,88.67
2016-05-01T06:19:36.982Z,88.67
2016-05-01T06:20:37.047Z,88.67
2016-05-01T06:21:36.987Z,88.47
2016-05-01T06:22:36.833Z,88.38
2016-05-01T06:23:36.993Z,88.76
2016-05-01T06:24:36.996Z,88.38
2016-05-01T06:25:36.998Z,88.38
2016-05-01T06:26:37.001Z,88.19
2016-05-01T06:27:36.831Z,88.28
2016-05-01T06:28:37.021Z,88.38
2016-05-01T06:29:36.993Z,88.19
2016-05-01T06:30:36.979Z,88.28
2016-05-01T06:31:36.999Z,88.52
2016-05-01T06:32:36.845Z,88.61
2016-05-01T06:33:36.987Z,88.8
2016-05-01T06:34:36.991Z,87.76
2016-05-01T06:35:37.290Z,87.76
2016-05-01T06:36:36.996Z,87.57
2016-05-01T06:37:36.999Z,87.95
2016-05-01T06:38:36.986Z,87.76
2016-05-01T06:39:36.989Z,87.57
2016-05-01T06:40:36.992Z,87.47
2016-05-01T06:41:36.995Z,87.76
2016-05-01T06:42:36.997Z,87.19
2016-05-01T06:43:37.000Z,87.28
2016-05-01T06:44:36.845Z,87.38
2016-05-01T06:45:36.989Z,87.28
2016-05-01T06:46:37.008Z,87.09
2016-05-01T06:47:36.994Z,87.09
2016-05-01T06:48:36.997Z,87.28
2016-05-01T06:49:37.000Z,86.9
2016-05-01T06:50:37.031Z,87.19
2016-05-01T06:51:37.091Z,86.99
2016-05-01T06:52:37.105Z,86.33
2016-05-01T06:53:37.010Z,86.9
2016-05-01T06:54:37.039Z,86.33
2016-05-01T06:55:37.223Z,86.8
2016-05-01T06:56:37.241Z,87.19
2016-05-01T06:57:37.103Z,86.43
2016-05-01T06:58:37.277Z,86.52
2016-05-01T06:59:37.281Z,86.52
2016-05-01T07:00:37.291Z,86.52
2016-05-01T07:01:37.315Z,86.52
2016-05-01T07:02:37.151Z,86.43
2016-05-01T07:03:37.300Z,86.61
2016-05-01T07:04:37.308Z,86.43
2016-05-01T07:05:37.174Z,86.71
2016-05-01T07:06:37.318Z,86.43
2016-05-01T07:07:37.323Z,86.14
2016-05-01T07:08:37.328Z,86.24
2016-05-01T07:09:37.332Z,86.14
2016-05-01T07:10:37.322Z,85.95
2016-05-01T07:11:37.167Z,86.14
2016-05-01T07:12:37.172Z,86.33
2016-05-01T07:13:37.331Z,86.05
2016-05-01T07:14:37.178Z,85.95
2016-05-01T07:15:37.338Z,85.76
2016-05-01T07:16:37.185Z,85.57
2016-05-01T07:17:37.328Z,86.24
2016-05-01T07:18:37.332Z,85.76
2016-05-01T07:19:37.334Z,85.95
2016-05-01T07:20:37.916Z,85.76
2016-05-01T07:21:37.340Z,85.86
2016-05-01T07:22:37.343Z,85.95
2016-05-01T07:23:37.330Z,86.24
2016-05-01T07:24:37.332Z,85.57
2016-05-01T07:25:37.335Z,85.28
2016-05-01T07:26:37.337Z,85.66
2016-05-01T07:27:37.340Z,85.66
2016-05-01T07:28:37.328Z,85.57
2016-05-01T07:29:37.331Z,85.19
2016-05-01T07:30:37.333Z,85.19
2016-05-01T07:31:37.336Z,85.19
2016-05-01T07:32:37.339Z,84.91
2016-05-01T07:33:37.342Z,85
2016-05-01T07:34:37.359Z,85.1
2016-05-01T07:35:37.519Z,84.91
2016-05-01T07:36:37.349Z,85.1
2016-05-01T07:37:37.337Z,85.28
2016-05-01T07:38:37.355Z,85.28
2016-05-01T07:39:37.341Z,85.1
2016-05-01T07:40:37.328Z,85.1
2016-05-01T07:41:37.191Z,85.1
2016-05-01T07:42:37.334Z,84.91
2016-05-01T07:43:37.336Z,85.1
2016-05-01T07:44:37.339Z,85.19
2016-05-01T07:45:37.342Z,85.38
2016-05-01T07:46:37.345Z,85.1
2016-05-01T07:47:37.347Z,84.81
2016-05-01T07:48:37.350Z,84.91
2016-05-01T07:49:37.337Z,84.62
2016-05-01T07:50:37.184Z,84.72
2016-05-01T07:51:37.343Z,84.62
2016-05-01T07:52:37.345Z,84.33
2016-05-01T07:53:37.192Z,84.33
2016-05-01T07:54:37.351Z,84.33
2016-05-01T07:55:37.182Z,83.86
2016-05-01T07:56:37.184Z,84.14
2016-05-01T07:57:37.343Z,84.24
2016-05-01T07:58:37.346Z,84.14
2016-05-01T07:59:37.349Z,83.76
2016-05-01T08:00:37.351Z,83.86
2016-05-01T08:01:37.339Z,84.05
2016-05-01T08:02:37.356Z,83.86
2016-05-01T08:03:37.344Z,83.86
2016-05-01T08:04:37.346Z,83.71
2016-05-01T08:05:37.205Z,84.09
2016-05-01T08:06:37.350Z,83.9
2016-05-01T08:07:37.352Z,83.86
2016-05-01T08:08:37.338Z,83.95
2016-05-01T08:09:37.342Z,83.86
2016-05-01T08:10:37.345Z,83.86
2016-05-01T08:11:37.347Z,83.76
2016-05-01T08:12:37.350Z,83.95
2016-05-01T08:13:37.352Z,83.86
2016-05-01T08:14:37.339Z,83.95
2016-05-01T08:15:37.357Z,83.48
2016-05-01T08:16:37.344Z,83.39
2016-05-01T08:17:37.347Z,83.39
2016-05-01T08:18:37.350Z,83.48
2016-05-01T08:19:37.352Z,83.19
2016-05-01T08:20:37.355Z,83.62
2016-05-01T08:21:37.343Z,83.29
2016-05-01T08:22:37.377Z,83.62
2016-05-01T08:23:37.349Z,83.48
2016-05-01T08:24:37.351Z,83.29
2016-05-01T08:25:37.353Z,83.19
2016-05-01T08:26:37.356Z,83.52
2016-05-01T08:27:37.359Z,83
2016-05-01T08:28:37.345Z,83.14
2016-05-01T08:29:37.349Z,83.1
2016-05-01T08:30:37.352Z,83.14
2016-05-01T08:31:37.354Z,83.23
2016-05-01T08:32:37.356Z,82.71
2016-05-01T08:33:37.344Z,82.57
2016-05-01T08:34:37.346Z,82.57
2016-05-01T08:35:37.349Z,82.57
2016-05-01T08:36:37.352Z,82.76
2016-05-01T08:37:37.354Z,82.48
2016-05-01T08:38:37.357Z,82.19
2016-05-01T08:39:37.360Z,82.28
2016-05-01T08:40:37.347Z,82.09
2016-05-01T08:41:37.349Z,82.48
2016-05-01T08:42:37.368Z,82.38
2016-05-01T08:43:37.199Z,82.09
2016-05-01T08:44:37.201Z,82.28
2016-05-01T08:45:37.204Z,82.19
2016-05-01T08:46:37.347Z,82.19
2016-05-01T08:47:37.366Z,82.19
2016-05-01T08:48:37.353Z,82.19
2016-05-01T08:49:37.355Z,82.38
2016-05-01T08:50:37.577Z,82.38
2016-05-01T08:51:37.360Z,82.57
2016-05-01T08:52:37.348Z,82.76
2016-05-01T08:53:37.366Z,82.67
2016-05-01T08:54:37.368Z,82.57
2016-05-01T08:55:37.357Z,82.67
2016-05-01T08:56:37.359Z,82.38
2016-05-01T08:57:37.361Z,82.67
2016-05-01T08:58:37.380Z,82.28
2016-05-01T08:59:37.351Z,82.57
2016-05-01T09:00:37.370Z,82.76
2016-05-01T09:01:37.357Z,82.57
2016-05-01T09:02:37.359Z,81.9
2016-05-01T09:03:37.361Z,81.71
2016-05-01T09:04:37.365Z,81.9
2016-05-01T09:05:38.226Z,81.81
2016-05-01T09:06:37.370Z,81.71
2016-05-01T09:07:37.373Z,81.81
2016-05-01T09:08:37.203Z,82
2016-05-01T09:09:37.206Z,81.81
2016-05-01T09:10:37.208Z,81.9
2016-05-01T09:11:37.414Z,81.81
2016-05-01T09:12:37.355Z,81.71
2016-05-01T09:13:37.201Z,81.9
2016-05-01T09:14:37.360Z,82.19
2016-05-01T09:15:37.363Z,82
2016-05-01T09:16:37.381Z,81.81
2016-05-01T09:17:37.369Z,81.81
2016-05-01T09:18:37.371Z,82.09
2016-05-01T09:19:37.358Z,81.52
2016-05-01T09:20:37.236Z,81.81
2016-05-01T09:21:37.364Z,81.62
2016-05-01T09:22:37.366Z,81.33
2016-05-01T09:23:37.373Z,81.52
2016-05-01T09:24:37.376Z,81.14
2016-05-01T09:25:37.363Z,81.14
2016-05-01T09:26:37.365Z,81.05
2016-05-01T09:27:37.369Z,81.14
2016-05-01T09:28:37.371Z,81.14
2016-05-01T09:29:37.374Z,81.14
2016-05-01T09:30:37.377Z,80.95
2016-05-01T09:31:37.379Z,80.95
2016-05-01T09:32:37.381Z,80.86
2016-05-01T09:33:37.370Z,80.57
2016-05-01T09:34:37.215Z,80.47
2016-05-01T09:35:37.547Z,80.19
2016-05-01T09:36:37.378Z,80.38
2016-05-01T09:37:37.381Z,80.19
2016-05-01T09:38:37.367Z,80.29
2016-05-01T09:39:37.401Z,80.1
2016-05-01T09:40:37.388Z,79.52
2016-05-01T09:41:37.391Z,79.81
2016-05-01T09:42:37.377Z,79.91
2016-05-01T09:43:37.381Z,79.72
2016-05-01T09:44:37.384Z,79.81
2016-05-01T09:45:37.386Z,80
2016-05-01T09:46:37.373Z,79.81
2016-05-01T09:47:37.375Z,79.72
2016-05-01T09:48:37.378Z,79.52
2016-05-01T09:49:37.381Z,79.91
2016-05-01T09:50:38.633Z,80.1
2016-05-01T09:51:37.386Z,79.72
2016-05-01T09:52:37.374Z,79.81
2016-05-01T09:53:37.377Z,79.81
2016-05-01T09:54:37.379Z,80.1
2016-05-01T09:55:37.381Z,80
2016-05-01T09:56:37.229Z,79.14
2016-05-01T09:57:37.371Z,80.1
2016-05-01T09:58:37.373Z,80.1
2016-05-01T09:59:37.377Z,79.91
2016-05-01T10:00:37.380Z,79.81
2016-05-01T10:01:37.382Z,79.72
2016-05-01T10:02:37.385Z,79.91
2016-05-01T10:03:37.543Z,79.24
2016-05-01T10:04:37.390Z,79.52
2016-05-01T10:05:37.393Z,79.43
2016-05-01T10:06:37.395Z,79.33
2016-05-01T10:07:37.399Z,79.33
2016-05-01T10:08:37.229Z,79.52
2016-05-01T10:09:37.388Z,79.52
2016-05-01T10:10:37.391Z,79.43
2016-05-01T10:11:37.394Z,79.19
2016-05-01T10:12:37.240Z,79.38
2016-05-01T10:13:37.242Z,79.47
2016-05-01T10:14:37.385Z,79.28
2016-05-01T10:15:37.389Z,79.19
2016-05-01T10:16:37.392Z,79.19
2016-05-01T10:17:37.394Z,78.99
2016-05-01T10:18:37.381Z,78.61
2016-05-01T10:19:37.399Z,78.71
2016-05-01T10:20:37.246Z,78.71
2016-05-01T10:21:37.389Z,78.8
2016-05-01T10:22:37.236Z,78.71
2016-05-01T10:23:37.395Z,78.99
2016-05-01T10:24:37.413Z,78.9
2016-05-01T10:25:37.385Z,78.33
2016-05-01T10:26:37.246Z,78.33
2016-05-01T10:27:37.390Z,78.42
2016-05-01T10:28:37.392Z,78.42
2016-05-01T10:29:37.395Z,78.14
2016-05-01T10:30:37.429Z,77.85
2016-05-01T10:31:37.401Z,78.42
2016-05-01T10:32:37.404Z,78.33
2016-05-01T10:33:37.249Z,77.85
2016-05-01T10:34:37.393Z,77.95
2016-05-01T10:35:37.395Z,77.95
2016-05-01T10:36:37.242Z,77.85
2016-05-01T10:37:37.400Z,78.23
2016-05-01T10:38:37.404Z,78.52
2016-05-01T10:39:37.251Z,78.23
2016-05-01T10:40:37.393Z,78.42
2016-05-01T10:41:37.395Z,78.23
2016-05-01T10:42:37.398Z,78.52
2016-05-01T10:43:37.400Z,78.42
2016-05-01T10:44:37.404Z,78.52
2016-05-01T10:45:37.407Z,78.23
2016-05-01T10:46:37.519Z,78.23
2016-05-01T10:47:37.459Z,78.42
2016-05-01T10:48:37.446Z,78.42
2016-05-01T10:49:37.402Z,78.04
2016-05-01T10:50:38.404Z,77.95
2016-05-01T10:51:37.407Z,78.23
2016-05-01T10:52:37.411Z,78.14
2016-05-01T10:53:37.413Z,78.14
2016-05-01T10:54:37.416Z,78.23
2016-05-01T10:55:37.402Z,78.14
2016-05-01T10:56:37.421Z,78.14
2016-05-01T10:57:37.407Z,77.47
2016-05-01T10:58:37.410Z,78.33
2016-05-01T10:59:37.413Z,78.23
2016-05-01T11:00:37.415Z,78.23
2016-05-01T11:01:37.418Z,78.04
2016-05-01T11:02:37.406Z,78.33
2016-05-01T11:03:37.409Z,77.56
2016-05-01T11:04:37.411Z,77.76
2016-05-01T11:05:37.867Z,77.76
2016-05-01T11:06:37.401Z,77.85
2016-05-01T11:07:37.419Z,77.95
2016-05-01T11:08:37.406Z,77.95
2016-05-01T11:09:37.425Z,77.76
2016-05-01T11:10:37.411Z,77.76
2016-05-01T11:11:37.414Z,77.76
2016-05-01T11:12:37.417Z,77.56
2016-05-01T11:13:37.420Z,78.04
2016-05-01T11:14:37.406Z,78.04
2016-05-01T11:15:37.425Z,78.04
2016-05-01T11:16:37.412Z,77.85
2016-05-01T11:17:37.414Z,78.57
2016-05-01T11:18:37.433Z,78.19
2016-05-01T11:19:37.420Z,78.48
2016-05-01T11:20:37.611Z,78.29
2016-05-01T11:21:37.425Z,78.29
2016-05-01T11:22:37.428Z,78.33
2016-05-01T11:23:37.431Z,78.38
2016-05-01T11:24:37.433Z,78.38
2016-05-01T11:25:37.280Z,78.86
2016-05-01T11:26:37.424Z,78.96
2016-05-01T11:27:37.426Z,78.86
2016-05-01T11:28:37.429Z,78.67
2016-05-01T11:29:37.416Z,78.86
2016-05-01T11:30:37.419Z,78.77
2016-05-01T11:31:37.421Z,78.67
2016-05-01T11:32:37.268Z,78.77
2016-05-01T11:33:37.426Z,78.86
2016-05-01T11:34:37.429Z,78.67
2016-05-01T11:35:38.823Z,78.86
2016-05-01T11:36:37.435Z,78.67
2016-05-01T11:37:37.421Z,78.77
2016-05-01T11:38:37.424Z,78.96
2016-05-01T11:39:37.427Z,79.24
2016-05-01T11:40:37.429Z,79.05
2016-05-01T11:41:37.432Z,79.14
2016-05-01T11:42:37.435Z,79.14
2016-05-01T11:43:37.437Z,79.33
2016-05-01T11:44:37.440Z,78.67
2016-05-01T11:45:37.442Z,78.86
2016-05-01T11:46:37.289Z,78.86
2016-05-01T11:47:37.433Z,78.96
2016-05-01T11:48:37.436Z,78.67
2016-05-01T11:49:37.438Z,78.52
2016-05-01T11:50:37.270Z,78.57
2016-05-01T11:51:37.428Z,78.57
2016-05-01T11:52:37.430Z,78.57
2016-05-01T11:53:37.278Z,78.8
2016-05-01T11:54:37.280Z,78.71
2016-05-01T11:55:37.424Z,78.57
2016-05-01T11:56:37.426Z,78.96
2016-05-01T11:57:37.429Z,78.86
2016-05-01T11:58:37.447Z,78.8
2016-05-01T11:59:37.434Z,78.71
2016-05-01T12:00:37.437Z,78.67
2016-05-01T12:01:37.440Z,78.8
2016-05-01T12:02:37.285Z,78.67
2016-05-01T12:03:37.288Z,78.86
2016-05-01T12:04:37.291Z,78.99
2016-05-01T12:05:37.590Z,78.96
2016-05-01T12:06:37.437Z,78.96
2016-05-01T12:07:37.439Z,78.57
2016-05-01T12:08:37.287Z,78.71
2016-05-01T12:09:37.462Z,78.71
2016-05-01T12:10:37.432Z,78.71
2016-05-01T12:11:37.435Z,78.8
2016-05-01T12:12:37.437Z,78.86
2016-05-01T12:13:37.440Z,78.61
2016-05-01T12:14:37.443Z,78.71
2016-05-01T12:15:37.445Z,78.71
2016-05-01T12:16:37.448Z,78.67
2016-05-01T12:17:37.294Z,78.67
2016-05-01T12:18:37.297Z,78.71
2016-05-01T12:19:37.441Z,78.61
2016-05-01T12:20:37.756Z,78.67
2016-05-01T12:21:37.447Z,78.48
2016-05-01T12:22:37.450Z,78.52
2016-05-01T12:23:37.452Z,78.71
2016-05-01T12:24:37.454Z,78.71
2016-05-01T12:25:37.441Z,78.23
2016-05-01T12:26:37.444Z,78.61
2016-05-01T12:27:37.447Z,78.52
2016-05-01T12:28:37.480Z,78.33
2016-05-01T12:29:37.452Z,77.95
2016-05-01T12:30:37.454Z,78.14
2016-05-01T12:31:37.458Z,77.66
2016-05-01T12:32:37.444Z,77.32
2016-05-01T12:33:37.447Z,77.42
2016-05-01T12:34:37.450Z,76.94
2016-05-01T12:35:37.452Z,76.75
2016-05-01T12:36:37.455Z,76.94
2016-05-01T12:37:37.317Z,76.75
2016-05-01T12:38:37.460Z,76.56
2016-05-01T12:39:37.448Z,76.59
2016-05-01T12:40:37.466Z,76.31
2016-05-01T12:41:37.453Z,76.03
2016-05-01T12:42:37.456Z,75.01
2016-05-01T12:43:37.459Z,75.11
2016-05-01T12:44:37.461Z,74.06
2016-05-01T12:45:37.464Z,73.77
2016-05-01T12:46:37.450Z,73.72
2016-05-01T12:47:37.453Z,73.14
2016-05-01T12:48:37.317Z,72.48
2016-05-01T12:49:37.459Z,72.42
2016-05-01T12:50:37.462Z,71.46
2016-05-01T12:51:37.308Z,70.98
2016-05-01T12:52:37.467Z,69.87
2016-05-01T12:53:37.469Z,68.92
2016-05-01T12:54:37.300Z,68.73